sensor_id;sensor_type;location;lat;lon;timestamp;P1;durP1;ratioP1;P2;durP2;ratioP2
37455;SDS011;23316;50.718;7.328;2024-01-27T00:01:17;6.57;;;2.17;;
37455;SDS011;23316;50.718;7.328;2024-01-27T00:03:44;5.55;;;2.20;;
37455;SDS011;23316;50.718;7.328;2024-01-27T00:06:11;6.13;;;2.03;;
37455;SDS011;23316;50.718;7.328;2024-01-27T00:08:39;7.70;;;2.05;;
37455;SDS011;23316;50.718;7.328;2024-01-27T00:11:06;4.50;;;2.00;;
37455;SDS011;23316;50.718;7.328;2024-01-27T00:13:33;5.82;;;2.60;;
37455;SDS011;23316;50.718;7.328;2024-01-27T00:16:02;4.47;;;2.05;;
37455;SDS011;23316;50.718;7.328;2024-01-27T00:18:30;5.40;;;1.95;;
37455;SDS011;23316;50.718;7.328;2024-01-27T00:20:57;3.95;;;1.80;;
37455;SDS011;23316;50.718;7.328;2024-01-27T00:23:24;4.50;;;1.88;;
37455;SDS011;23316;50.718;7.328;2024-01-27T00:25:51;6.15;;;1.88;;
37455;SDS011;23316;50.718;7.328;2024-01-27T00:28:19;6.78;;;2.15;;
37455;SDS011;23316;50.718;7.328;2024-01-27T00:30:46;5.82;;;1.95;;
37455;SDS011;23316;50.718;7.328;2024-01-27T00:33:14;4.60;;;1.85;;
37455;SDS011;23316;50.718;7.328;2024-01-27T00:35:42;7.97;;;2.03;;
37455;SDS011;23316;50.718;7.328;2024-01-27T00:38:09;4.72;;;1.73;;
37455;SDS011;23316;50.718;7.328;2024-01-27T00:40:36;6.80;;;2.05;;
37455;SDS011;23316;50.718;7.328;2024-01-27T00:43:04;5.82;;;2.10;;
37455;SDS011;23316;50.718;7.328;2024-01-27T00:45:31;6.55;;;1.98;;
37455;SDS011;23316;50.718;7.328;2024-01-27T00:47:58;5.88;;;1.95;;
37455;SDS011;23316;50.718;7.328;2024-01-27T00:50:27;4.93;;;1.70;;
37455;SDS011;23316;50.718;7.328;2024-01-27T00:52:54;4.85;;;1.90;;
37455;SDS011;23316;50.718;7.328;2024-01-27T00:55:21;5.63;;;2.03;;
37455;SDS011;23316;50.718;7.328;2024-01-27T00:57:48;5.88;;;2.08;;
37455;SDS011;23316;50.718;7.328;2024-01-27T01:00:16;3.28;;;1.65;;
37455;SDS011;23316;50.718;7.328;2024-01-27T01:02:43;4.55;;;1.88;;
37455;SDS011;23316;50.718;7.328;2024-01-27T01:05:11;5.38;;;1.65;;
37455;SDS011;23316;50.718;7.328;2024-01-27T01:07:39;8.63;;;2.40;;
37455;SDS011;23316;50.718;7.328;2024-01-27T01:10:06;8.23;;;2.13;;
37455;SDS011;23316;50.718;7.328;2024-01-27T01:12:34;4.30;;;1.83;;
37455;SDS011;23316;50.718;7.328;2024-01-27T01:15:01;7.18;;;1.77;;
37455;SDS011;23316;50.718;7.328;2024-01-27T01:17:29;5.32;;;1.95;;
37455;SDS011;23316;50.718;7.328;2024-01-27T01:19:56;6.35;;;2.28;;
37455;SDS011;23316;50.718;7.328;2024-01-27T01:22:23;5.80;;;2.08;;
37455;SDS011;23316;50.718;7.328;2024-01-27T01:24:52;6.03;;;1.95;;
37455;SDS011;23316;50.718;7.328;2024-01-27T01:27:19;5.78;;;2.08;;
37455;SDS011;23316;50.718;7.328;2024-01-27T01:29:47;5.40;;;1.88;;
37455;SDS011;23316;50.718;7.328;2024-01-27T01:32:14;4.88;;;1.70;;
37455;SDS011;23316;50.718;7.328;2024-01-27T01:34:42;4.65;;;2.08;;
37455;SDS011;23316;50.718;7.328;2024-01-27T01:37:09;4.95;;;2.00;;
37455;SDS011;23316;50.718;7.328;2024-01-27T01:39:36;4.72;;;1.90;;
37455;SDS011;23316;50.718;7.328;2024-01-27T01:42:04;4.78;;;1.67;;
37455;SDS011;23316;50.718;7.328;2024-01-27T01:44:31;5.72;;;1.92;;
37455;SDS011;23316;50.718;7.328;2024-01-27T01:46:58;4.65;;;1.70;;
37455;SDS011;23316;50.718;7.328;2024-01-27T01:49:25;6.57;;;1.80;;
37455;SDS011;23316;50.718;7.328;2024-01-27T01:51:53;5.68;;;2.20;;
37455;SDS011;23316;50.718;7.328;2024-01-27T01:54:20;5.05;;;1.85;;
37455;SDS011;23316;50.718;7.328;2024-01-27T01:56:53;5.05;;;1.73;;
37455;SDS011;23316;50.718;7.328;2024-01-27T01:59:22;5.43;;;1.95;;
37455;SDS011;23316;50.718;7.328;2024-01-27T02:01:50;3.33;;;1.50;;
37455;SDS011;23316;50.718;7.328;2024-01-27T02:04:17;6.35;;;1.70;;
37455;SDS011;23316;50.718;7.328;2024-01-27T02:06:44;5.57;;;1.73;;
37455;SDS011;23316;50.718;7.328;2024-01-27T02:09:12;4.65;;;1.95;;
37455;SDS011;23316;50.718;7.328;2024-01-27T02:11:39;3.35;;;1.50;;
37455;SDS011;23316;50.718;7.328;2024-01-27T02:14:06;5.28;;;1.70;;
37455;SDS011;23316;50.718;7.328;2024-01-27T02:16:35;4.53;;;1.67;;
37455;SDS011;23316;50.718;7.328;2024-01-27T02:19:02;4.95;;;1.75;;
37455;SDS011;23316;50.718;7.328;2024-01-27T02:21:30;6.53;;;1.90;;
37455;SDS011;23316;50.718;7.328;2024-01-27T02:23:57;6.13;;;1.85;;
37455;SDS011;23316;50.718;7.328;2024-01-27T02:26:26;6.35;;;2.00;;
37455;SDS011;23316;50.718;7.328;2024-01-27T02:28:53;4.30;;;1.65;;
37455;SDS011;23316;50.718;7.328;2024-01-27T02:31:20;6.07;;;2.03;;
37455;SDS011;23316;50.718;7.328;2024-01-27T02:33:47;5.93;;;2.00;;
37455;SDS011;23316;50.718;7.328;2024-01-27T02:36:15;4.13;;;1.40;;
37455;SDS011;23316;50.718;7.328;2024-01-27T02:38:42;7.47;;;1.92;;
37455;SDS011;23316;50.718;7.328;2024-01-27T02:41:10;6.05;;;2.00;;
37455;SDS011;23316;50.718;7.328;2024-01-27T02:43:38;5.13;;;1.75;;
37455;SDS011;23316;50.718;7.328;2024-01-27T02:46:06;7.20;;;2.17;;
37455;SDS011;23316;50.718;7.328;2024-01-27T02:48:36;5.07;;;2.05;;
37455;SDS011;23316;50.718;7.328;2024-01-27T02:51:06;5.00;;;1.85;;
37455;SDS011;23316;50.718;7.328;2024-01-27T02:53:33;5.72;;;1.63;;
37455;SDS011;23316;50.718;7.328;2024-01-27T02:56:01;7.03;;;2.05;;
37455;SDS011;23316;50.718;7.328;2024-01-27T02:58:28;3.72;;;1.55;;
37455;SDS011;23316;50.718;7.328;2024-01-27T03:00:57;4.20;;;1.77;;
37455;SDS011;23316;50.718;7.328;2024-01-27T03:03:24;5.82;;;1.73;;
37455;SDS011;23316;50.718;7.328;2024-01-27T03:05:51;4.28;;;2.00;;
37455;SDS011;23316;50.718;7.328;2024-01-27T03:08:19;5.32;;;1.70;;
37455;SDS011;23316;50.718;7.328;2024-01-27T03:10:46;4.45;;;1.90;;
37455;SDS011;23316;50.718;7.328;2024-01-27T03:13:14;4.75;;;1.88;;
37455;SDS011;23316;50.718;7.328;2024-01-27T03:15:41;4.28;;;1.67;;
37455;SDS011;23316;50.718;7.328;2024-01-27T03:18:10;4.20;;;1.65;;
37455;SDS011;23316;50.718;7.328;2024-01-27T03:20:37;8.43;;;2.45;;
37455;SDS011;23316;50.718;7.328;2024-01-27T03:23:04;4.68;;;1.90;;
37455;SDS011;23316;50.718;7.328;2024-01-27T03:25:32;5.70;;;2.10;;
37455;SDS011;23316;50.718;7.328;2024-01-27T03:27:59;4.53;;;1.60;;
37455;SDS011;23316;50.718;7.328;2024-01-27T03:30:27;4.47;;;1.60;;
37455;SDS011;23316;50.718;7.328;2024-01-27T03:32:54;6.55;;;1.92;;
37455;SDS011;23316;50.718;7.328;2024-01-27T03:35:23;4.60;;;1.50;;
37455;SDS011;23316;50.718;7.328;2024-01-27T03:37:50;6.03;;;1.80;;
37455;SDS011;23316;50.718;7.328;2024-01-27T03:40:18;5.38;;;1.63;;
37455;SDS011;23316;50.718;7.328;2024-01-27T03:42:45;4.95;;;1.83;;
37455;SDS011;23316;50.718;7.328;2024-01-27T03:45:12;5.60;;;1.60;;
37455;SDS011;23316;50.718;7.328;2024-01-27T03:47:40;5.28;;;2.05;;
37455;SDS011;23316;50.718;7.328;2024-01-27T03:50:07;4.63;;;1.83;;
37455;SDS011;23316;50.718;7.328;2024-01-27T03:52:35;5.57;;;1.77;;
37455;SDS011;23316;50.718;7.328;2024-01-27T03:55:03;5.97;;;1.95;;
37455;SDS011;23316;50.718;7.328;2024-01-27T03:57:31;5.43;;;1.90;;
37455;SDS011;23316;50.718;7.328;2024-01-27T03:59:59;7.25;;;2.08;;
37455;SDS011;23316;50.718;7.328;2024-01-27T04:02:26;5.90;;;1.70;;
37455;SDS011;23316;50.718;7.328;2024-01-27T04:04:53;6.63;;;1.80;;
37455;SDS011;23316;50.718;7.328;2024-01-27T04:07:20;4.13;;;1.58;;
37455;SDS011;23316;50.718;7.328;2024-01-27T04:09:49;5.40;;;1.85;;
37455;SDS011;23316;50.718;7.328;2024-01-27T04:12:16;5.03;;;1.73;;
37455;SDS011;23316;50.718;7.328;2024-01-27T04:14:43;5.75;;;2.13;;
37455;SDS011;23316;50.718;7.328;2024-01-27T04:17:10;5.43;;;1.98;;
37455;SDS011;23316;50.718;7.328;2024-01-27T04:19:37;5.85;;;2.10;;
37455;SDS011;23316;50.718;7.328;2024-01-27T04:22:05;5.75;;;1.65;;
37455;SDS011;23316;50.718;7.328;2024-01-27T04:24:32;5.70;;;1.90;;
37455;SDS011;23316;50.718;7.328;2024-01-27T04:27:01;5.03;;;1.50;;
37455;SDS011;23316;50.718;7.328;2024-01-27T04:29:28;6.70;;;2.05;;
37455;SDS011;23316;50.718;7.328;2024-01-27T04:31:56;5.45;;;2.22;;
37455;SDS011;23316;50.718;7.328;2024-01-27T04:34:23;8.63;;;1.90;;
37455;SDS011;23316;50.718;7.328;2024-01-27T04:36:50;5.03;;;1.80;;
37455;SDS011;23316;50.718;7.328;2024-01-27T04:39:18;5.88;;;2.17;;
37455;SDS011;23316;50.718;7.328;2024-01-27T04:41:45;5.47;;;1.90;;
37455;SDS011;23316;50.718;7.328;2024-01-27T04:44:13;4.32;;;1.45;;
37455;SDS011;23316;50.718;7.328;2024-01-27T04:46:41;4.13;;;1.58;;
37455;SDS011;23316;50.718;7.328;2024-01-27T04:49:08;4.47;;;1.65;;
37455;SDS011;23316;50.718;7.328;2024-01-27T04:51:35;5.85;;;1.67;;
37455;SDS011;23316;50.718;7.328;2024-01-27T04:54:02;5.03;;;1.40;;
37455;SDS011;23316;50.718;7.328;2024-01-27T04:56:30;5.57;;;1.85;;
37455;SDS011;23316;50.718;7.328;2024-01-27T04:58:57;5.15;;;2.00;;
37455;SDS011;23316;50.718;7.328;2024-01-27T05:01:25;4.72;;;1.52;;
37455;SDS011;23316;50.718;7.328;2024-01-27T05:03:53;3.33;;;1.38;;
37455;SDS011;23316;50.718;7.328;2024-01-27T05:06:20;4.00;;;1.65;;
37455;SDS011;23316;50.718;7.328;2024-01-27T05:08:47;4.45;;;1.50;;
37455;SDS011;23316;50.718;7.328;2024-01-27T05:11:15;6.10;;;2.05;;
37455;SDS011;23316;50.718;7.328;2024-01-27T05:13:43;5.00;;;1.77;;
37455;SDS011;23316;50.718;7.328;2024-01-27T05:16:10;5.50;;;1.88;;
37455;SDS011;23316;50.718;7.328;2024-01-27T05:18:38;9.30;;;2.17;;
37455;SDS011;23316;50.718;7.328;2024-01-27T05:21:06;5.50;;;1.67;;
37455;SDS011;23316;50.718;7.328;2024-01-27T05:23:33;5.00;;;1.70;;
37455;SDS011;23316;50.718;7.328;2024-01-27T05:26:00;5.55;;;2.08;;
37455;SDS011;23316;50.718;7.328;2024-01-27T05:28:28;4.78;;;1.67;;
37455;SDS011;23316;50.718;7.328;2024-01-27T05:30:55;6.07;;;1.63;;
37455;SDS011;23316;50.718;7.328;2024-01-27T05:33:22;5.70;;;1.75;;
37455;SDS011;23316;50.718;7.328;2024-01-27T05:35:51;5.18;;;2.10;;
37455;SDS011;23316;50.718;7.328;2024-01-27T05:38:18;5.75;;;1.90;;
37455;SDS011;23316;50.718;7.328;2024-01-27T05:40:45;4.18;;;1.35;;
37455;SDS011;23316;50.718;7.328;2024-01-27T05:43:14;5.05;;;1.75;;
37455;SDS011;23316;50.718;7.328;2024-01-27T05:45:41;13.07;;;1.90;;
37455;SDS011;23316;50.718;7.328;2024-01-27T05:48:10;12.05;;;2.22;;
37455;SDS011;23316;50.718;7.328;2024-01-27T05:50:39;8.38;;;1.70;;
37455;SDS011;23316;50.718;7.328;2024-01-27T05:53:10;10.80;;;2.17;;
37455;SDS011;23316;50.718;7.328;2024-01-27T05:55:37;7.18;;;2.22;;
37455;SDS011;23316;50.718;7.328;2024-01-27T05:58:04;9.65;;;2.00;;
37455;SDS011;23316;50.718;7.328;2024-01-27T06:00:31;9.13;;;4.13;;
37455;SDS011;23316;50.718;7.328;2024-01-27T06:02:59;19.15;;;9.55;;
37455;SDS011;23316;50.718;7.328;2024-01-27T06:05:26;25.88;;;8.32;;
37455;SDS011;23316;50.718;7.328;2024-01-27T06:07:53;19.50;;;6.10;;
37455;SDS011;23316;50.718;7.328;2024-01-27T06:10:22;17.30;;;6.22;;
37455;SDS011;23316;50.718;7.328;2024-01-27T06:12:50;22.48;;;5.50;;
37455;SDS011;23316;50.718;7.328;2024-01-27T06:15:17;16.15;;;4.25;;
37455;SDS011;23316;50.718;7.328;2024-01-27T06:17:44;13.82;;;4.43;;
37455;SDS011;23316;50.718;7.328;2024-01-27T06:20:12;11.98;;;4.07;;
37455;SDS011;23316;50.718;7.328;2024-01-27T06:22:41;8.07;;;3.60;;
37455;SDS011;23316;50.718;7.328;2024-01-27T06:25:09;8.02;;;3.72;;
37455;SDS011;23316;50.718;7.328;2024-01-27T06:27:38;10.52;;;3.47;;
37455;SDS011;23316;50.718;7.328;2024-01-27T06:30:07;8.32;;;3.40;;
37455;SDS011;23316;50.718;7.328;2024-01-27T06:32:36;9.70;;;3.30;;
37455;SDS011;23316;50.718;7.328;2024-01-27T06:35:03;19.10;;;7.80;;
37455;SDS011;23316;50.718;7.328;2024-01-27T06:37:31;123.60;;;64.35;;
37455;SDS011;23316;50.718;7.328;2024-01-27T06:39:59;123.72;;;61.50;;
37455;SDS011;23316;50.718;7.328;2024-01-27T06:42:26;68.25;;;35.97;;
37455;SDS011;23316;50.718;7.328;2024-01-27T06:44:54;41.65;;;23.52;;
37455;SDS011;23316;50.718;7.328;2024-01-27T06:47:21;34.13;;;17.25;;
37455;SDS011;23316;50.718;7.328;2024-01-27T06:49:49;31.25;;;14.95;;
37455;SDS011;23316;50.718;7.328;2024-01-27T06:52:16;23.45;;;12.68;;
37455;SDS011;23316;50.718;7.328;2024-01-27T06:54:43;24.92;;;12.75;;
37455;SDS011;23316;50.718;7.328;2024-01-27T06:57:17;22.75;;;11.27;;
37455;SDS011;23316;50.718;7.328;2024-01-27T06:59:46;19.35;;;11.10;;
37455;SDS011;23316;50.718;7.328;2024-01-27T07:02:19;18.85;;;9.70;;
37455;SDS011;23316;50.718;7.328;2024-01-27T07:04:59;17.58;;;9.05;;
37455;SDS011;23316;50.718;7.328;2024-01-27T07:07:27;16.50;;;8.85;;
37455;SDS011;23316;50.718;7.328;2024-01-27T07:09:55;13.57;;;7.57;;
37455;SDS011;23316;50.718;7.328;2024-01-27T07:12:22;11.57;;;7.00;;
37455;SDS011;23316;50.718;7.328;2024-01-27T07:14:50;12.25;;;6.15;;
37455;SDS011;23316;50.718;7.328;2024-01-27T07:17:17;18.42;;;6.63;;
37455;SDS011;23316;50.718;7.328;2024-01-27T07:19:45;15.35;;;6.78;;
37455;SDS011;23316;50.718;7.328;2024-01-27T07:22:13;21.67;;;6.20;;
37455;SDS011;23316;50.718;7.328;2024-01-27T07:24:41;14.95;;;6.10;;
37455;SDS011;23316;50.718;7.328;2024-01-27T07:27:11;12.23;;;5.07;;
37455;SDS011;23316;50.718;7.328;2024-01-27T07:29:39;14.23;;;5.10;;
37455;SDS011;23316;50.718;7.328;2024-01-27T07:32:06;14.93;;;4.75;;
37455;SDS011;23316;50.718;7.328;2024-01-27T07:34:39;8.13;;;4.07;;
37455;SDS011;23316;50.718;7.328;2024-01-27T07:37:07;9.73;;;4.15;;
37455;SDS011;23316;50.718;7.328;2024-01-27T07:39:36;8.20;;;4.38;;
37455;SDS011;23316;50.718;7.328;2024-01-27T07:42:04;8.57;;;3.55;;
37455;SDS011;23316;50.718;7.328;2024-01-27T07:44:31;10.38;;;3.67;;
37455;SDS011;23316;50.718;7.328;2024-01-27T07:46:58;13.43;;;4.10;;
37455;SDS011;23316;50.718;7.328;2024-01-27T07:49:25;10.23;;;3.65;;
37455;SDS011;23316;50.718;7.328;2024-01-27T07:51:54;8.98;;;3.83;;
37455;SDS011;23316;50.718;7.328;2024-01-27T07:54:21;17.08;;;4.22;;
37455;SDS011;23316;50.718;7.328;2024-01-27T07:56:50;12.43;;;3.08;;
37455;SDS011;23316;50.718;7.328;2024-01-27T07:59:18;9.63;;;3.42;;
37455;SDS011;23316;50.718;7.328;2024-01-27T08:01:45;21.92;;;3.70;;
37455;SDS011;23316;50.718;7.328;2024-01-27T08:04:12;7.30;;;3.20;;
37455;SDS011;23316;50.718;7.328;2024-01-27T08:06:47;9.95;;;3.08;;
37455;SDS011;23316;50.718;7.328;2024-01-27T08:09:15;7.47;;;2.90;;
37455;SDS011;23316;50.718;7.328;2024-01-27T08:11:43;7.28;;;2.88;;
37455;SDS011;23316;50.718;7.328;2024-01-27T08:14:12;7.43;;;2.90;;
37455;SDS011;23316;50.718;7.328;2024-01-27T08:16:39;15.00;;;3.33;;
37455;SDS011;23316;50.718;7.328;2024-01-27T08:19:06;6.28;;;2.42;;
37455;SDS011;23316;50.718;7.328;2024-01-27T08:21:33;11.63;;;2.70;;
37455;SDS011;23316;50.718;7.328;2024-01-27T08:24:00;13.27;;;3.00;;
37455;SDS011;23316;50.718;7.328;2024-01-27T08:26:28;7.93;;;2.40;;
37455;SDS011;23316;50.718;7.328;2024-01-27T08:28:54;13.85;;;3.50;;
37455;SDS011;23316;50.718;7.328;2024-01-27T08:31:23;7.63;;;2.75;;
37455;SDS011;23316;50.718;7.328;2024-01-27T08:33:50;11.13;;;3.45;;
37455;SDS011;23316;50.718;7.328;2024-01-27T08:36:17;20.30;;;3.03;;
37455;SDS011;23316;50.718;7.328;2024-01-27T08:38:44;11.45;;;2.78;;
37455;SDS011;23316;50.718;7.328;2024-01-27T08:41:12;14.13;;;3.03;;
37455;SDS011;23316;50.718;7.328;2024-01-27T08:43:39;18.38;;;3.40;;
37455;SDS011;23316;50.718;7.328;2024-01-27T08:46:06;20.30;;;3.13;;
37455;SDS011;23316;50.718;7.328;2024-01-27T08:48:40;20.60;;;3.30;;
37455;SDS011;23316;50.718;7.328;2024-01-27T08:51:08;16.38;;;3.35;;
37455;SDS011;23316;50.718;7.328;2024-01-27T08:53:35;19.08;;;3.28;;
37455;SDS011;23316;50.718;7.328;2024-01-27T08:56:03;7.78;;;2.63;;
37455;SDS011;23316;50.718;7.328;2024-01-27T08:58:31;9.10;;;2.90;;
37455;SDS011;23316;50.718;7.328;2024-01-27T09:00:58;10.82;;;3.00;;
37455;SDS011;23316;50.718;7.328;2024-01-27T09:03:30;10.50;;;2.70;;
37455;SDS011;23316;50.718;7.328;2024-01-27T09:05:59;13.88;;;2.63;;
37455;SDS011;23316;50.718;7.328;2024-01-27T09:08:26;10.63;;;3.42;;
37455;SDS011;23316;50.718;7.328;2024-01-27T09:10:53;11.80;;;3.20;;
37455;SDS011;23316;50.718;7.328;2024-01-27T09:13:20;9.93;;;2.97;;
37455;SDS011;23316;50.718;7.328;2024-01-27T09:15:48;75.93;;;34.65;;
37455;SDS011;23316;50.718;7.328;2024-01-27T09:18:15;74.40;;;35.85;;
37455;SDS011;23316;50.718;7.328;2024-01-27T09:20:43;41.67;;;21.98;;
37455;SDS011;23316;50.718;7.328;2024-01-27T09:23:11;28.45;;;14.18;;
37455;SDS011;23316;50.718;7.328;2024-01-27T09:25:39;22.63;;;10.40;;
37455;SDS011;23316;50.718;7.328;2024-01-27T09:28:08;21.45;;;8.32;;
37455;SDS011;23316;50.718;7.328;2024-01-27T09:30:36;14.65;;;6.97;;
37455;SDS011;23316;50.718;7.328;2024-01-27T09:33:04;13.40;;;5.93;;
37455;SDS011;23316;50.718;7.328;2024-01-27T09:35:31;16.60;;;6.13;;
37455;SDS011;23316;50.718;7.328;2024-01-27T09:37:58;14.00;;;5.07;;
37455;SDS011;23316;50.718;7.328;2024-01-27T09:40:27;14.05;;;5.75;;
37455;SDS011;23316;50.718;7.328;2024-01-27T09:42:54;18.85;;;5.10;;
37455;SDS011;23316;50.718;7.328;2024-01-27T09:45:26;12.57;;;5.18;;
37455;SDS011;23316;50.718;7.328;2024-01-27T09:47:53;11.30;;;4.25;;
37455;SDS011;23316;50.718;7.328;2024-01-27T09:50:27;17.05;;;4.63;;
37455;SDS011;23316;50.718;7.328;2024-01-27T09:53:09;15.70;;;3.65;;
37455;SDS011;23316;50.718;7.328;2024-01-27T09:55:43;12.80;;;3.78;;
37455;SDS011;23316;50.718;7.328;2024-01-27T09:58:11;15.90;;;3.35;;
37455;SDS011;23316;50.718;7.328;2024-01-27T10:00:40;20.75;;;4.15;;
37455;SDS011;23316;50.718;7.328;2024-01-27T10:03:09;10.73;;;3.47;;
37455;SDS011;23316;50.718;7.328;2024-01-27T10:05:36;15.45;;;3.17;;
37455;SDS011;23316;50.718;7.328;2024-01-27T10:08:05;11.25;;;3.00;;
37455;SDS011;23316;50.718;7.328;2024-01-27T10:10:33;17.40;;;3.90;;
37455;SDS011;23316;50.718;7.328;2024-01-27T10:13:01;20.50;;;3.40;;
37455;SDS011;23316;50.718;7.328;2024-01-27T10:15:31;12.63;;;3.80;;
37455;SDS011;23316;50.718;7.328;2024-01-27T10:18:05;9.35;;;3.05;;
37455;SDS011;23316;50.718;7.328;2024-01-27T10:23:09;18.30;;;4.03;;
37455;SDS011;23316;50.718;7.328;2024-01-27T10:25:37;13.82;;;3.45;;
37455;SDS011;23316;50.718;7.328;2024-01-27T10:28:06;10.73;;;3.38;;
37455;SDS011;23316;50.718;7.328;2024-01-27T10:30:34;9.65;;;2.78;;
37455;SDS011;23316;50.718;7.328;2024-01-27T10:33:01;13.60;;;3.47;;
37455;SDS011;23316;50.718;7.328;2024-01-27T10:35:28;10.95;;;3.40;;
37455;SDS011;23316;50.718;7.328;2024-01-27T10:37:56;8.98;;;2.72;;
37455;SDS011;23316;50.718;7.328;2024-01-27T10:40:23;14.35;;;2.70;;
37455;SDS011;23316;50.718;7.328;2024-01-27T10:42:51;11.70;;;2.72;;
37455;SDS011;23316;50.718;7.328;2024-01-27T10:45:28;10.75;;;3.08;;
37455;SDS011;23316;50.718;7.328;2024-01-27T10:48:00;7.18;;;2.83;;
37455;SDS011;23316;50.718;7.328;2024-01-27T10:50:29;5.32;;;2.22;;
37455;SDS011;23316;50.718;7.328;2024-01-27T10:52:57;6.88;;;2.25;;
37455;SDS011;23316;50.718;7.328;2024-01-27T10:55:26;8.27;;;2.58;;
37455;SDS011;23316;50.718;7.328;2024-01-27T10:57:54;8.63;;;2.78;;
37455;SDS011;23316;50.718;7.328;2024-01-27T11:00:22;8.25;;;2.65;;
37455;SDS011;23316;50.718;7.328;2024-01-27T11:02:52;7.90;;;2.47;;
37455;SDS011;23316;50.718;7.328;2024-01-27T11:05:22;9.02;;;3.03;;
37455;SDS011;23316;50.718;7.328;2024-01-27T11:07:51;7.38;;;1.95;;
37455;SDS011;23316;50.718;7.328;2024-01-27T11:10:18;6.65;;;2.53;;
37455;SDS011;23316;50.718;7.328;2024-01-27T11:12:45;7.75;;;2.40;;
37455;SDS011;23316;50.718;7.328;2024-01-27T11:15:14;6.90;;;2.50;;
37455;SDS011;23316;50.718;7.328;2024-01-27T11:17:42;5.47;;;2.00;;
37455;SDS011;23316;50.718;7.328;2024-01-27T11:20:12;6.60;;;1.85;;
37455;SDS011;23316;50.718;7.328;2024-01-27T11:22:42;7.88;;;2.78;;
37455;SDS011;23316;50.718;7.328;2024-01-27T11:25:14;5.05;;;2.13;;
37455;SDS011;23316;50.718;7.328;2024-01-27T11:27:43;6.80;;;2.45;;
37455;SDS011;23316;50.718;7.328;2024-01-27T11:32:54;6.05;;;2.25;;
37455;SDS011;23316;50.718;7.328;2024-01-27T11:35:24;5.95;;;2.05;;
37455;SDS011;23316;50.718;7.328;2024-01-27T11:37:51;5.72;;;2.22;;
37455;SDS011;23316;50.718;7.328;2024-01-27T11:40:19;12.02;;;2.72;;
37455;SDS011;23316;50.718;7.328;2024-01-27T11:42:53;14.25;;;3.00;;
37455;SDS011;23316;50.718;7.328;2024-01-27T11:45:21;11.27;;;2.90;;
37455;SDS011;23316;50.718;7.328;2024-01-27T11:47:48;9.88;;;3.20;;
37455;SDS011;23316;50.718;7.328;2024-01-27T11:50:16;9.93;;;2.88;;
37455;SDS011;23316;50.718;7.328;2024-01-27T11:52:46;10.00;;;2.97;;
37455;SDS011;23316;50.718;7.328;2024-01-27T11:55:13;10.80;;;2.78;;
37455;SDS011;23316;50.718;7.328;2024-01-27T11:57:41;12.35;;;3.35;;
37455;SDS011;23316;50.718;7.328;2024-01-27T12:00:08;11.25;;;2.40;;
37455;SDS011;23316;50.718;7.328;2024-01-27T12:02:36;8.95;;;2.08;;
37455;SDS011;23316;50.718;7.328;2024-01-27T12:05:03;9.80;;;2.40;;
37455;SDS011;23316;50.718;7.328;2024-01-27T12:07:31;5.10;;;1.80;;
37455;SDS011;23316;50.718;7.328;2024-01-27T12:09:59;6.95;;;2.25;;
37455;SDS011;23316;50.718;7.328;2024-01-27T12:12:26;5.78;;;2.13;;
37455;SDS011;23316;50.718;7.328;2024-01-27T12:14:54;10.73;;;1.95;;
37455;SDS011;23316;50.718;7.328;2024-01-27T12:17:22;7.57;;;2.30;;
37455;SDS011;23316;50.718;7.328;2024-01-27T12:19:50;7.50;;;2.17;;
37455;SDS011;23316;50.718;7.328;2024-01-27T12:22:22;7.75;;;2.22;;
37455;SDS011;23316;50.718;7.328;2024-01-27T12:24:51;6.40;;;1.92;;
37455;SDS011;23316;50.718;7.328;2024-01-27T12:27:21;7.20;;;1.95;;
37455;SDS011;23316;50.718;7.328;2024-01-27T12:29:48;6.25;;;2.20;;
37455;SDS011;23316;50.718;7.328;2024-01-27T12:32:16;7.60;;;2.45;;
37455;SDS011;23316;50.718;7.328;2024-01-27T12:34:44;5.72;;;1.77;;
37455;SDS011;23316;50.718;7.328;2024-01-27T12:37:13;6.45;;;2.20;;
37455;SDS011;23316;50.718;7.328;2024-01-27T12:39:43;6.90;;;1.95;;
37455;SDS011;23316;50.718;7.328;2024-01-27T12:42:10;5.32;;;2.05;;
37455;SDS011;23316;50.718;7.328;2024-01-27T12:44:39;3.47;;;1.60;;
37455;SDS011;23316;50.718;7.328;2024-01-27T12:47:06;7.32;;;2.00;;
37455;SDS011;23316;50.718;7.328;2024-01-27T12:49:34;5.30;;;1.75;;
37455;SDS011;23316;50.718;7.328;2024-01-27T12:52:01;6.30;;;2.30;;
37455;SDS011;23316;50.718;7.328;2024-01-27T12:54:29;4.90;;;1.77;;
37455;SDS011;23316;50.718;7.328;2024-01-27T12:56:56;5.53;;;2.00;;
37455;SDS011;23316;50.718;7.328;2024-01-27T12:59:25;5.65;;;1.90;;
37455;SDS011;23316;50.718;7.328;2024-01-27T13:01:53;5.70;;;1.77;;
37455;SDS011;23316;50.718;7.328;2024-01-27T13:04:21;5.60;;;2.00;;
37455;SDS011;23316;50.718;7.328;2024-01-27T13:06:49;5.68;;;1.63;;
37455;SDS011;23316;50.718;7.328;2024-01-27T13:09:16;5.10;;;1.63;;
37455;SDS011;23316;50.718;7.328;2024-01-27T13:11:43;4.15;;;1.33;;
37455;SDS011;23316;50.718;7.328;2024-01-27T13:14:11;5.90;;;1.85;;
37455;SDS011;23316;50.718;7.328;2024-01-27T13:16:40;5.10;;;1.60;;
37455;SDS011;23316;50.718;7.328;2024-01-27T13:19:08;4.78;;;1.83;;
37455;SDS011;23316;50.718;7.328;2024-01-27T13:21:35;8.77;;;1.70;;
37455;SDS011;23316;50.718;7.328;2024-01-27T13:24:03;6.10;;;1.60;;
37455;SDS011;23316;50.718;7.328;2024-01-27T13:26:30;4.20;;;1.50;;
37455;SDS011;23316;50.718;7.328;2024-01-27T13:28:58;5.82;;;1.80;;
37455;SDS011;23316;50.718;7.328;2024-01-27T13:31:25;4.65;;;1.80;;
37455;SDS011;23316;50.718;7.328;2024-01-27T13:33:52;4.25;;;2.00;;
37455;SDS011;23316;50.718;7.328;2024-01-27T13:36:21;3.78;;;1.70;;
37455;SDS011;23316;50.718;7.328;2024-01-27T13:38:48;5.05;;;1.58;;
37455;SDS011;23316;50.718;7.328;2024-01-27T13:41:15;7.43;;;1.40;;
37455;SDS011;23316;50.718;7.328;2024-01-27T13:43:42;8.85;;;1.88;;
37455;SDS011;23316;50.718;7.328;2024-01-27T13:46:09;11.10;;;1.80;;
37455;SDS011;23316;50.718;7.328;2024-01-27T13:48:37;13.68;;;2.13;;
37455;SDS011;23316;50.718;7.328;2024-01-27T13:51:04;11.80;;;2.00;;
37455;SDS011;23316;50.718;7.328;2024-01-27T13:53:34;7.72;;;1.80;;
37455;SDS011;23316;50.718;7.328;2024-01-27T13:56:01;9.13;;;2.30;;
37455;SDS011;23316;50.718;7.328;2024-01-27T13:58:29;7.53;;;1.77;;
37455;SDS011;23316;50.718;7.328;2024-01-27T14:00:57;13.05;;;2.17;;
37455;SDS011;23316;50.718;7.328;2024-01-27T14:03:24;10.23;;;2.28;;
37455;SDS011;23316;50.718;7.328;2024-01-27T14:05:51;10.45;;;2.05;;
37455;SDS011;23316;50.718;7.328;2024-01-27T14:08:18;5.65;;;1.92;;
37455;SDS011;23316;50.718;7.328;2024-01-27T14:10:47;8.73;;;2.05;;
37455;SDS011;23316;50.718;7.328;2024-01-27T14:13:17;19.60;;;2.00;;
37455;SDS011;23316;50.718;7.328;2024-01-27T14:15:44;6.82;;;1.80;;
37455;SDS011;23316;50.718;7.328;2024-01-27T14:18:12;14.10;;;1.92;;
37455;SDS011;23316;50.718;7.328;2024-01-27T14:20:46;5.68;;;1.58;;
37455;SDS011;23316;50.718;7.328;2024-01-27T14:23:14;7.32;;;1.98;;
37455;SDS011;23316;50.718;7.328;2024-01-27T14:25:41;6.93;;;2.00;;
37455;SDS011;23316;50.718;7.328;2024-01-27T14:28:10;9.73;;;2.17;;
37455;SDS011;23316;50.718;7.328;2024-01-27T14:30:38;8.25;;;1.83;;
37455;SDS011;23316;50.718;7.328;2024-01-27T14:33:06;4.68;;;1.70;;
37455;SDS011;23316;50.718;7.328;2024-01-27T14:35:33;4.28;;;1.52;;
37455;SDS011;23316;50.718;7.328;2024-01-27T14:38:00;8.35;;;2.10;;
37455;SDS011;23316;50.718;7.328;2024-01-27T14:40:27;12.02;;;2.53;;
37455;SDS011;23316;50.718;7.328;2024-01-27T14:42:57;7.15;;;1.95;;
37455;SDS011;23316;50.718;7.328;2024-01-27T14:45:25;5.78;;;1.80;;
37455;SDS011;23316;50.718;7.328;2024-01-27T14:47:52;7.20;;;1.90;;
37455;SDS011;23316;50.718;7.328;2024-01-27T14:50:20;7.68;;;1.90;;
37455;SDS011;23316;50.718;7.328;2024-01-27T14:52:47;6.07;;;2.38;;